TimePDT,TemperatureF,Dew PointF,Humidity,Sea Level PressureIn,VisibilityMPH,Wind Direction,Wind SpeedMPH,Gust SpeedMPH,PrecipitationIn,Events,Conditions,WindDirDegrees,DateUTC
12:55 AM,46.9,43.0,86,30.04,10.0,Calm,Calm,-,N/A,,Overcast,0,2012-11-03 07:55:00
1:55 AM,48.0,44.1,86,30.04,10.0,Calm,Calm,-,N/A,,Overcast,0,2012-11-03 08:55:00
2:55 AM,46.9,44.1,90,30.03,8.0,Calm,Calm,-,N/A,,Overcast,0,2012-11-03 09:55:00
3:55 AM,46.9,44.1,90,30.02,9.0,North,3.5,-,N/A,,Overcast,360,2012-11-03 10:55:00
4:55 AM,48.0,44.1,86,30.03,10.0,Calm,Calm,-,N/A,,Mostly Cloudy,0,2012-11-03 11:55:00
5:55 AM,46.9,44.1,90,30.05,8.0,Calm,Calm,-,0.02,Rain,Light Rain,0,2012-11-03 12:55:00
6:55 AM,46.9,43.0,86,30.04,10.0,NNE,3.5,-,0.00,,Mostly Cloudy,30,2012-11-03 13:55:00
7:55 AM,46.0,43.0,89,30.05,2.0,Calm,Calm,-,N/A,,Scattered Clouds,0,2012-11-03 14:55:00
8:02 AM,46.4,44.6,93,30.04,1.2,Calm,Calm,-,N/A,,Scattered Clouds,0,2012-11-03 15:02:00
8:12 AM,46.4,44.6,93,30.05,2.0,Calm,Calm,-,N/A,,Partly Cloudy,0,2012-11-03 15:12:00
8:19 AM,44.6,42.8,93,30.05,1.2,Calm,Calm,-,N/A,,Partly Cloudy,0,2012-11-03 15:19:00
8:25 AM,46.4,42.8,87,30.04,3.0,Calm,Calm,-,N/A,,Partly Cloudy,0,2012-11-03 15:25:00
8:55 AM,46.9,44.1,90,30.06,7.0,Calm,Calm,-,N/A,,Overcast,0,2012-11-03 15:55:00
9:55 AM,48.0,45.0,89,30.06,6.0,Calm,Calm,-,N/A,,Scattered Clouds,0,2012-11-03 16:55:00
10:15 AM,48.2,44.6,87,30.05,2.5,East,3.5,-,N/A,,Mostly Cloudy,80,2012-11-03 17:15:00
10:31 AM,48.2,46.4,93,30.06,6.0,SSE,3.5,-,N/A,,Overcast,150,2012-11-03 17:31:00
10:55 AM,48.9,46.0,90,30.07,5.0,SE,3.5,-,N/A,,Mostly Cloudy,140,2012-11-03 17:55:00
11:55 AM,51.1,46.0,83,30.06,10.0,East,6.9,-,N/A,,Partly Cloudy,90,2012-11-03 18:55:00
12:55 PM,52.0,46.0,80,30.05,10.0,ESE,6.9,-,N/A,,Clear,110,2012-11-03 19:55:00
1:55 PM,53.1,46.0,77,30.04,10.0,East,6.9,-,N/A,,Mostly Cloudy,100,2012-11-03 20:55:00
2:55 PM,53.1,46.0,77,30.04,10.0,ESE,8.1,-,N/A,,Overcast,110,2012-11-03 21:55:00
3:55 PM,53.1,46.9,80,30.04,7.0,ESE,9.2,-,N/A,,Overcast,110,2012-11-03 22:55:00
4:55 PM,53.1,46.9,80,30.04,7.0,East,9.2,-,N/A,,Partly Cloudy,100,2012-11-03 23:55:00
5:55 PM,53.1,46.9,80,30.05,9.0,NE,4.6,-,N/A,,Scattered Clouds,40,2012-11-04 00:55:00
6:55 PM,52.0,46.9,83,30.06,9.0,Calm,Calm,-,N/A,,Partly Cloudy,0,2012-11-04 01:55:00
7:55 PM,51.1,46.0,83,30.08,8.0,ENE,3.5,-,N/A,,Mostly Cloudy,60,2012-11-04 02:55:00
8:55 PM,48.9,46.0,90,30.10,5.0,Calm,Calm,-,N/A,,Partly Cloudy,0,2012-11-04 03:55:00
9:55 PM,48.9,45.0,86,30.12,8.0,Calm,Calm,-,N/A,,Clear,0,2012-11-04 04:55:00
10:55 PM,48.9,45.0,86,30.14,8.0,Calm,Calm,-,N/A,,Overcast,0,2012-11-04 05:55:00
11:55 PM,50.0,46.0,86,30.15,9.0,Calm,Calm,-,N/A,,Overcast,0,2012-11-04 06:55:00